Impacts METAR Board
IDs:

KLHB - Hearne Muni, TX, US

Updated at: 2300 UTC 29 May 2020
Potential Impact None Slight Moderate High
Time 29/11Z 29/12Z 29/13Z 29/14Z 29/15Z 29/16Z 29/17Z 29/18Z 29/19Z 29/20Z 29/21Z 29/22Z 29/23Z
Temp67 70 71 73 76 78 82 84 85 87 87 88 87
Dewpt65 65 65 67 67 66 66 65 61 60 60 60 59
Altim30.06 30.08 30.10 30.13 30.11 30.10 30.10 30.09 30.10 30.10 30.10 30.08 30.07
VIS10 10 10 10 10 10 10 10 10 10 10 10 10
CIG-- -- -- 60 -- -- -- -- -- -- -- -- --
CoverCLRCLRCLRBKNCLRSCTSCTCLRCLRCLRCLRCLRCLR
FltCatVFRVFRVFRVFRVFRVFRVFRVFRVFRVFRVFRVFRVFR
WX--------------------------
WDir36020102036010201030203036010
WSpd4 4 7 5 8 9 9 11 13 10 10 10 7
WGst-- -- -- -- -- -- 17 16 16 15 -- 14 --
Raw hourly METARs
KLHB 291055Z AUTO 36004KT 10SM CLR 20/19 A3006 RMK AO2 T01970185
KLHB 291155Z AUTO 02004KT 10SM CLR 21/18 A3008 RMK AO2 T02100183 10215 20197
KLHB 291255Z AUTO 01007KT 10SM CLR 22/19 A3010 RMK AO2 T02170185
KLHB 291355Z AUTO 02005KT 10SM BKN060 23/19 A3013 RMK AO2 T02300193
KLHB 291455Z AUTO 36008KT 10SM CLR 24/19 A3011 RMK AO2 T02440193
KLHB 291555Z AUTO 01009KT 10SM SCT023 26/19 A3010 RMK AO2 T02580189
KLHB 291655Z AUTO 02009G17KT 10SM SCT029 28/19 A3010 RMK AO2 T02750189
KLHB 291755Z AUTO 01011G16KT 340V040 10SM CLR 29/19 A3009 RMK AO2 T02890185 10289 20210
KLHB 291855Z AUTO 03013G16KT 10SM CLR 30/16 A3010 RMK AO2 T02970160
KLHB 291955Z AUTO 02010G15KT 10SM CLR 31/16 A3010 RMK AO2 T03050158
KLHB 292055Z AUTO 03010KT 10SM CLR 31/16 A3010 RMK AO2 T03070157
KLHB 292155Z AUTO 36010G14KT 10SM CLR 31/15 A3008 RMK AO2 T03090154
KLHB 292255Z AUTO 01007KT 10SM CLR 31/15 A3007 RMK AO2 T03060151